Time;durP1;ratioP1;P1;durP2;ratioP2;P2;SDS_P1;SDS_P2;PMS_P1;PMS_P2;Temp;Humidity;BMP_temperature;BMP_pressure;BME280_temperature;BME280_humidity;BME280_pressure;Samples;Min_cycle;Max_cycle;Signal;HPM_P1;HPM_P2
2022/01/01 00:00:42;;;;;;;10.47;7.77;;;;;;;9.77;91.87;99114.97;5059089;28;20600;-72
2022/01/01 00:03:08;;;;;;;9.07;6.77;;;;;;;9.85;91.02;99116.69;5059306;28;20202;-72
2022/01/01 00:05:35;;;;;;;6.40;5.27;;;;;;;10.10;87.64;99121.47;5058504;28;20225;-73
2022/01/01 00:08:03;;;;;;;7.13;5.17;;;;;;;10.11;87.64;99127.63;5059201;28;20607;-73
2022/01/01 00:10:30;;;;;;;5.73;5.10;;;;;;;10.23;86.53;99128.78;5058875;28;20263;-73
2022/01/01 00:12:56;;;;;;;5.03;4.43;;;;;;;10.34;85.49;99123.75;5059002;28;20292;-72
2022/01/01 00:15:23;;;;;;;6.50;5.20;;;;;;;10.31;86.14;99118.81;5058724;28;20648;-72
2022/01/01 00:17:49;;;;;;;6.53;4.80;;;;;;;10.21;87.48;99128.13;5058889;28;20199;-73
2022/01/01 00:20:16;;;;;;;7.10;5.00;;;;;;;10.30;85.78;99125.16;5058888;28;20190;-72
2022/01/01 00:22:43;;;;;;;5.87;5.20;;;;;;;10.33;85.55;99126.59;5058482;28;20202;-72
2022/01/01 00:25:11;;;;;;;6.40;5.20;;;;;;;10.34;85.11;99122.94;5058692;28;20201;-72
2022/01/01 00:27:38;;;;;;;6.13;4.93;;;;;;;10.30;85.67;99127.81;5058583;28;20635;-73
2022/01/01 00:30:06;;;;;;;5.83;5.00;;;;;;;10.19;87.57;99130.16;5077188;28;20197;-73
2022/01/01 00:32:33;;;;;;;6.60;5.90;;;;;;;10.19;87.58;99132.81;5078902;28;20201;-73
2022/01/01 00:35:02;;;;;;;6.07;5.40;;;;;;;10.08;87.98;99138.63;5078832;28;20533;-73
2022/01/01 00:37:28;;;;;;;6.73;4.77;;;;;;;10.05;88.59;99139.00;5078719;28;20188;-72
2022/01/01 00:39:55;;;;;;;7.07;5.57;;;;;;;9.99;88.95;99134.41;5062177;28;20189;-72
2022/01/01 00:42:25;;;;;;;7.47;5.70;;;;;;;9.93;89.48;99128.03;5058167;28;20213;-72
2022/01/01 00:44:52;;;;;;;7.07;5.90;;;;;;;9.87;91.82;99142.06;5058192;28;20508;-73
2022/01/01 00:47:18;;;;;;;9.47;5.77;;;;;;;9.80;93.25;99137.69;5058396;28;20221;-73
2022/01/01 00:49:45;;;;;;;8.33;5.80;;;;;;;9.78;92.68;99137.06;5072664;28;20204;-73
2022/01/01 00:52:11;;;;;;;8.40;5.70;;;;;;;9.74;92.48;99133.94;5079018;28;20211;-72
2022/01/01 00:54:38;;;;;;;7.43;6.40;;;;;;;9.71;92.62;99136.97;5078517;28;20200;-74
2022/01/01 00:57:04;;;;;;;12.60;9.10;;;;;;;9.72;92.46;99138.63;5078372;28;20227;-73
2022/01/01 00:59:30;;;;;;;11.47;8.30;;;;;;;9.67;94.02;99140.19;5076415;28;20197;-72
2022/01/01 01:01:59;;;;;;;23.17;17.30;;;;;;;9.71;91.54;99138.81;5078570;28;20205;-73
2022/01/01 01:04:26;;;;;;;23.73;20.53;;;;;;;9.93;89.21;99140.47;5078287;28;20200;-73
2022/01/01 01:06:53;;;;;;;24.03;21.13;;;;;;;9.89;88.67;99144.53;5078029;28;20224;-73
2022/01/01 01:09:20;;;;;;;23.87;21.23;;;;;;;9.85;89.81;99144.09;5062465;28;20288;-73
2022/01/01 01:11:51;;;;;;;29.73;23.47;;;;;;;9.93;88.66;99148.44;5058185;28;20201;-73
2022/01/01 01:14:22;;;;;;;26.77;22.60;;;;;;;9.92;89.54;99141.50;5058022;28;20193;-73
2022/01/01 01:16:51;;;;;;;28.97;23.80;;;;;;;9.89;89.58;99147.19;5069129;28;20221;-72
2022/01/01 01:19:21;;;;;;;32.87;25.90;;;;;;;9.84;88.91;99142.44;5077935;28;20204;-73
2022/01/01 01:21:49;;;;;;;32.37;25.57;;;;;;;9.87;89.20;99147.38;5077672;28;20567;-72
2022/01/01 01:24:16;;;;;;;33.67;26.57;;;;;;;9.74;90.32;99147.22;5077831;28;20197;-72
2022/01/01 01:26:48;;;;;;;30.60;25.37;;;;;;;9.79;89.65;99152.81;5067007;28;20218;-73
2022/01/01 01:29:15;;;;;;;28.30;25.17;;;;;;;9.71;90.77;99152.91;5057639;28;20204;-72
2022/01/01 01:31:41;;;;;;;27.73;23.97;;;;;;;9.73;90.31;99152.75;5057624;28;20193;-72
2022/01/01 01:34:08;;;;;;;27.53;23.97;;;;;;;9.79;90.13;99167.91;5057625;28;20624;-73
2022/01/01 01:36:34;;;;;;;31.60;25.70;;;;;;;9.79;90.34;99162.59;5057434;28;20643;-72
2022/01/01 01:39:01;;;;;;;30.87;26.23;;;;;;;9.74;90.98;99165.81;5057310;28;20251;-72
2022/01/01 01:41:30;;;;;;;31.17;24.43;;;;;;;9.69;91.04;99172.69;5057060;28;20213;-73
2022/01/01 01:43:57;;;;;;;30.67;26.13;;;;;;;9.51;91.68;99164.31;5057336;28;20259;-73
2022/01/01 01:46:25;;;;;;;32.33;25.97;;;;;;;9.43;92.44;99157.28;5063252;28;20638;-73
2022/01/01 01:48:53;;;;;;;30.13;24.83;;;;;;;9.40;92.39;99154.97;5077385;28;20212;-72
2022/01/01 01:51:20;;;;;;;30.50;26.27;;;;;;;9.38;92.95;99156.19;5076972;28;20263;-73
2022/01/01 01:53:46;;;;;;;31.47;26.93;;;;;;;9.33;94.73;99158.56;5077581;28;20201;-72
2022/01/01 01:56:13;;;;;;;29.00;25.90;;;;;;;9.37;93.71;99159.84;5076098;28;20523;-72
2022/01/01 01:58:39;;;;;;;30.87;25.57;;;;;;;9.31;94.38;99163.22;5077524;28;20216;-73
2022/01/01 02:01:24;;;;;;;29.27;25.97;;;;;;;9.34;95.57;99152.25;5077237;28;20189;-73
2022/01/01 02:03:54;;;;;;;31.63;25.70;;;;;;;9.30;94.08;99153.59;5076826;28;20192;-73
2022/01/01 02:06:21;;;;;;;28.80;22.93;;;;;;;9.36;93.55;99152.88;5070734;28;20227;-73
2022/01/01 02:08:49;;;;;;;22.07;17.07;;;;;;;9.47;92.54;99155.91;5056994;28;20205;-73
2022/01/01 02:11:18;;;;;;;26.37;20.90;;;;;;;9.50;93.06;99154.72;5057040;28;20196;-73
2022/01/01 02:14:01;;;;;;;21.80;16.10;;;;;;;9.52;91.26;99158.81;5056937;28;20212;-72
2022/01/01 02:16:35;;;;;;;22.57;18.17;;;;;;;9.51;92.89;99164.31;5061557;28;20222;-73
2022/01/01 02:19:01;;;;;;;19.23;16.57;;;;;;;9.52;92.54;99169.44;5056541;28;20623;-72
2022/01/01 02:21:28;;;;;;;23.93;17.00;;;;;;;9.57;91.53;99171.53;5056915;28;20197;-73
2022/01/01 02:23:58;;;;;;;18.23;15.83;;;;;;;9.59;90.84;99170.31;5056785;28;20307;-73
2022/01/01 02:26:34;;;;;;;19.80;17.63;;;;;;;9.62;90.33;99169.97;5062324;28;20243;-72
2022/01/01 02:29:03;;;;;;;19.77;17.37;;;;;;;9.58;91.01;99167.84;5076756;28;20188;-73
2022/01/01 02:31:32;;;;;;;23.10;16.80;;;;;;;9.52;92.41;99164.13;5076668;28;20287;-72
2022/01/01 02:34:04;;;;;;;22.07;17.13;;;;;;;9.44;92.76;99172.19;5076348;28;20516;-73
2022/01/01 02:36:32;;;;;;;19.20;16.57;;;;;;;9.42;93.18;99157.47;5056248;28;20269;-73
2022/01/01 02:38:58;;;;;;;18.73;16.07;;;;;;;9.36;93.97;99169.63;5056600;28;20198;-73
2022/01/01 02:41:26;;;;;;;19.73;15.73;;;;;;;9.35;94.64;99161.84;5056369;28;20213;-73
2022/01/01 02:43:52;;;;;;;17.97;15.23;;;;;;;9.30;94.96;99166.88;5056159;28;20603;-73
2022/01/01 02:46:19;;;;;;;19.77;16.27;;;;;;;9.27;96.08;99162.75;5073309;28;20229;-72
2022/01/01 02:48:45;;;;;;;18.63;15.13;;;;;;;9.26;96.09;99160.28;5076165;28;20196;-72
2022/01/01 02:51:12;;;;;;;17.53;13.87;;;;;;;9.19;96.06;99152.25;5076505;28;20188;-72
2022/01/01 02:53:41;;;;;;;19.50;15.90;;;;;;;9.13;96.58;99165.41;5076186;28;20614;-72
2022/01/01 02:56:08;;;;;;;18.93;16.17;;;;;;;9.12;96.90;99163.78;5060478;28;20213;-73
2022/01/01 02:58:34;;;;;;;23.13;17.67;;;;;;;9.11;96.16;99159.47;5056043;28;20577;-73
2022/01/01 03:01:00;;;;;;;29.60;25.03;;;;;;;9.14;96.58;99159.13;5056217;28;20196;-73
2022/01/01 03:03:27;;;;;;;32.37;26.63;;;;;;;9.08;97.29;99149.22;5056539;28;20212;-73
2022/01/01 03:05:53;;;;;;;39.77;30.03;;;;;;;9.21;96.21;99152.91;5069850;28;20227;-73
2022/01/01 03:08:19;;;;;;;39.53;33.57;;;;;;;9.15;97.19;99155.47;5080121;28;20196;-73
2022/01/01 03:10:47;;;;;;;39.67;32.53;;;;;;;9.19;96.72;99151.44;5080718;28;20195;-72
2022/01/01 03:13:13;;;;;;;42.17;33.93;;;;;;;9.12;97.75;99151.34;5080376;28;20188;-73
2022/01/01 03:15:40;;;;;;;42.67;37.27;;;;;;;9.09;97.70;99148.25;5068770;28;20217;-73
2022/01/01 03:18:06;;;;;;;44.73;37.73;;;;;;;9.19;97.97;99154.88;5078224;28;20192;-73
2022/01/01 03:20:33;;;;;;;44.63;38.23;;;;;;;9.07;98.82;99159.03;5080239;28;20280;-73
2022/01/01 03:22:59;;;;;;;48.23;37.90;;;;;;;9.16;97.53;99162.41;5079950;28;20193;-72
2022/01/01 03:25:25;;;;;;;44.63;37.00;;;;;;;9.11;96.93;99162.97;5080092;28;20225;-72
2022/01/01 03:27:52;;;;;;;44.80;37.77;;;;;;;9.08;97.42;99149.22;5064223;28;20217;-72
2022/01/01 03:30:18;;;;;;;47.10;37.37;;;;;;;9.05;96.78;99155.72;5060041;28;20637;-73
2022/01/01 03:32:45;;;;;;;44.10;37.10;;;;;;;9.03;97.29;99147.13;5059985;28;20218;-72
2022/01/01 03:35:11;;;;;;;41.47;35.73;;;;;;;9.07;95.73;99148.41;5059778;28;20203;-73
2022/01/01 03:37:38;;;;;;;43.00;35.03;;;;;;;9.05;95.69;99144.31;5073272;28;20188;-72
2022/01/01 03:40:05;;;;;;;40.57;34.80;;;;;;;9.05;95.09;99141.66;5074318;28;20508;-73
2022/01/01 03:42:32;;;;;;;41.90;34.73;;;;;;;8.97;96.29;99141.72;5059462;28;20522;-73
2022/01/01 03:44:58;;;;;;;42.50;34.67;;;;;;;8.89;97.41;99144.47;5059776;28;20209;-72
2022/01/01 03:47:24;;;;;;;44.27;35.23;;;;;;;8.89;97.05;99147.13;5059545;28;20221;-74
2022/01/01 03:49:51;;;;;;;43.57;34.40;;;;;;;8.89;96.76;99149.75;5062475;28;20194;-72
2022/01/01 03:52:17;;;;;;;39.77;32.63;;;;;;;8.94;97.22;99148.22;5079632;28;20208;-73
2022/01/01 03:54:43;;;;;;;39.57;34.53;;;;;;;8.96;98.65;99154.16;5079653;28;20193;-72
2022/01/01 03:57:10;;;;;;;40.43;33.73;;;;;;;8.95;97.94;99159.63;5079482;28;20217;-72
2022/01/01 03:59:36;;;;;;;39.90;34.27;;;;;;;8.95;97.97;99159.63;5061339;28;20193;-73
2022/01/01 04:02:03;;;;;;;37.97;32.37;;;;;;;8.99;97.44;99160.94;5059507;28;20193;-72
2022/01/01 04:04:30;;;;;;;40.47;33.47;;;;;;;8.96;97.96;99156.00;5060244;28;20214;-73
2022/01/01 04:06:57;;;;;;;36.80;31.83;;;;;;;9.00;97.71;99155.44;5058880;28;20532;-72
2022/01/01 04:09:24;;;;;;;34.40;30.53;;;;;;;9.06;97.41;99161.84;5059531;28;20554;-73
2022/01/01 04:11:51;;;;;;;39.60;32.13;;;;;;;9.03;99.13;99151.59;5058789;28;20511;-73
2022/01/01 04:14:17;;;;;;;38.37;31.03;;;;;;;9.04;98.40;99158.53;5078240;28;20228;-73
2022/01/01 04:16:45;;;;;;;33.10;28.93;;;;;;;8.98;98.87;99157.47;5078833;28;20307;-72
2022/01/01 04:19:12;;;;;;;32.90;28.00;;;;;;;9.10;96.38;99158.63;5078139;28;20196;-73
2022/01/01 04:21:38;;;;;;;38.63;30.63;;;;;;;9.10;95.80;99158.63;5079145;28;20193;-73
2022/01/01 04:24:05;;;;;;;38.43;30.60;;;;;;;9.07;95.64;99159.03;5073071;28;20208;-72
2022/01/01 04:26:33;;;;;;;33.60;29.90;;;;;;;9.06;95.24;99159.22;5067310;28;20225;-73
2022/01/01 04:28:59;;;;;;;37.93;28.80;;;;;;;9.04;95.24;99151.44;5058820;28;20194;-74
2022/01/01 04:31:26;;;;;;;37.13;30.47;;;;;;;9.00;96.74;99154.63;5058637;28;20197;-72
2022/01/01 04:33:52;;;;;;;36.23;29.00;;;;;;;9.01;95.17;99153.63;5058557;28;20695;-73
2022/01/01 04:36:20;;;;;;;34.43;29.40;;;;;;;8.96;96.22;99146.19;5058414;28;20232;-73
2022/01/01 04:38:47;;;;;;;35.40;28.47;;;;;;;8.94;96.80;99142.09;5058863;28;20210;-73
2022/01/01 04:41:15;;;;;;;34.47;28.33;;;;;;;8.92;96.65;99142.25;5058528;28;20217;-73
2022/01/01 04:43:43;;;;;;;30.57;27.27;;;;;;;8.87;97.10;99127.91;5058657;28;20233;-73
2022/01/01 04:46:10;;;;;;;33.17;26.40;;;;;;;8.81;97.58;99141.88;5058083;28;20648;-73
2022/01/01 04:48:37;;;;;;;29.67;25.63;;;;;;;8.69;97.55;99133.56;5073886;28;20189;-73
2022/01/01 04:51:09;;;;;;;29.53;24.17;;;;;;;8.70;96.70;99129.91;5078231;28;20185;-72
2022/01/01 04:53:36;;;;;;;32.13;24.27;;;;;;;8.60;97.34;99120.56;5078202;28;20192;-73
2022/01/01 04:56:06;;;;;;;31.90;24.60;;;;;;;8.46;98.38;99124.03;5078350;28;20217;-72
2022/01/01 04:58:33;;;;;;;30.93;25.60;;;;;;;8.34;99.09;99114.84;5063733;28;20567;-73
2022/01/01 05:00:59;;;;;;;32.37;24.33;;;;;;;8.26;99.03;99120.22;5058358;28;20193;-73
2022/01/01 05:03:25;;;;;;;30.23;23.87;;;;;;;8.17;99.71;99116.78;5058569;28;20523;-73
2022/01/01 05:05:52;;;;;;;33.23;23.87;;;;;;;8.05;99.49;99122.69;5057848;28;20221;-73
2022/01/01 05:08:18;;;;;;;27.13;22.90;;;;;;;8.03;100.00;99119.38;5070174;28;20224;-73
2022/01/01 05:10:44;;;;;;;27.73;22.47;;;;;;;7.92;100.00;99117.16;5077815;28;20204;-72
2022/01/01 05:13:11;;;;;;;28.37;23.27;;;;;;;7.87;100.00;99115.03;5078030;28;20203;-73
2022/01/01 05:15:37;;;;;;;30.57;23.73;;;;;;;7.79;100.00;99108.97;5077654;28;20730;-73
2022/01/01 05:18:03;;;;;;;28.60;21.63;;;;;;;7.76;100.00;99111.94;5067240;28;20593;-72
2022/01/01 05:20:30;;;;;;;27.07;21.47;;;;;;;7.69;100.00;99125.06;5057940;28;20519;-73
2022/01/01 05:22:56;;;;;;;25.73;21.83;;;;;;;7.64;100.00;99123.97;5057898;28;20508;-72
2022/01/01 05:25:22;;;;;;;28.37;22.80;;;;;;;7.60;100.00;99127.94;5057891;28;20217;-72
2022/01/01 05:27:49;;;;;;;26.43;21.93;;;;;;;7.55;100.00;99125.00;5057346;28;20663;-72
2022/01/01 05:30:15;;;;;;;26.07;21.20;;;;;;;7.46;100.00;99136.63;5057625;28;20608;-73
2022/01/01 05:32:41;;;;;;;26.67;22.23;;;;;;;7.41;100.00;99131.84;5057750;28;20507;-72
2022/01/01 05:35:08;;;;;;;28.30;22.93;;;;;;;7.44;100.00;99128.84;5057370;28;20600;-72
2022/01/01 05:37:35;;;;;;;28.23;21.70;;;;;;;7.46;100.00;99136.63;5057688;28;20194;-73
2022/01/01 05:40:01;;;;;;;24.67;20.80;;;;;;;7.40;100.00;99137.28;5057368;28;20523;-73
2022/01/01 05:42:28;;;;;;;26.00;21.17;;;;;;;7.38;100.00;99139.31;5057255;28;20209;-72
2022/01/01 05:44:54;;;;;;;26.37;19.70;;;;;;;7.49;100.00;99145.03;5057472;28;20201;-73
2022/01/01 05:47:20;;;;;;;27.47;21.13;;;;;;;7.45;100.00;99146.38;5057236;28;20224;-73
2022/01/01 05:49:47;;;;;;;25.10;20.60;;;;;;;7.41;100.00;99145.06;5057424;28;20208;-73
2022/01/01 05:52:13;;;;;;;24.77;19.87;;;;;;;7.39;100.00;99147.06;5057457;28;20189;-72
2022/01/01 05:54:39;;;;;;;22.87;18.77;;;;;;;7.40;100.00;99151.34;5057330;28;20323;-72
2022/01/01 05:57:06;;;;;;;24.40;18.57;;;;;;;7.43;100.00;99158.13;5070402;28;20212;-72
2022/01/01 05:59:33;;;;;;;23.90;18.20;;;;;;;7.49;100.00;99157.44;5077176;28;20197;-72
2022/01/01 06:01:59;;;;;;;20.97;18.07;;;;;;;7.50;100.00;99156.41;5076886;28;20627;-73
2022/01/01 06:04:25;;;;;;;21.93;18.13;;;;;;;7.58;100.00;99162.53;5068432;28;20205;-73
2022/01/01 06:06:52;;;;;;;21.73;18.10;;;;;;;7.62;100.00;99168.28;5056841;28;20275;-72
2022/01/01 06:09:18;;;;;;;22.07;17.43;;;;;;;7.67;100.00;99165.94;5057019;28;20212;-72
2022/01/01 06:11:44;;;;;;;20.67;16.97;;;;;;;7.65;100.00;99170.59;5057025;28;20193;-73
2022/01/01 06:14:11;;;;;;;24.27;18.40;;;;;;;7.73;100.00;99174.00;5062513;28;20201;-73
2022/01/01 06:16:37;;;;;;;22.17;17.50;;;;;;;7.71;100.00;99172.53;5076431;28;20662;-72
2022/01/01 06:19:03;;;;;;;19.67;17.07;;;;;;;7.76;100.00;99176.31;5061242;28;20508;-73
2022/01/01 06:21:30;;;;;;;20.63;16.93;;;;;;;7.84;100.00;99180.75;5056568;28;20611;-73
2022/01/01 06:23:56;;;;;;;20.13;17.40;;;;;;;7.87;100.00;99183.84;5056552;28;20623;-73
2022/01/01 06:26:22;;;;;;;20.63;17.00;;;;;;;7.90;100.00;99187.97;5056469;28;20648;-72
2022/01/01 06:28:49;;;;;;;18.23;16.33;;;;;;;7.95;100.00;99180.31;5068278;28;20660;-73
2022/01/01 06:31:15;;;;;;;18.67;16.37;;;;;;;7.95;100.00;99188.28;5076501;28;20185;-73
2022/01/01 06:33:42;;;;;;;21.73;16.83;;;;;;;7.90;100.00;99188.81;5076415;28;20205;-72
2022/01/01 06:36:11;;;;;;;21.27;17.90;;;;;;;7.96;100.00;99193.41;5076607;28;20223;-73
2022/01/01 06:38:38;;;;;;;19.30;16.33;;;;;;;7.95;100.00;99191.75;5065919;28;20501;-72
2022/01/01 06:41:04;;;;;;;22.43;17.00;;;;;;;7.96;100.00;99196.03;5067387;28;20212;-73
2022/01/01 06:43:31;;;;;;;21.80;16.37;;;;;;;7.99;100.00;99195.72;5064565;28;20606;-72
2022/01/01 06:45:57;;;;;;;20.67;16.57;;;;;;;8.02;99.17;99194.53;5056440;28;20229;-73
2022/01/01 06:48:23;;;;;;;19.83;16.03;;;;;;;8.03;97.57;99196.16;5067870;28;20201;-72
2022/01/01 06:50:50;;;;;;;18.47;16.23;;;;;;;8.05;98.04;99191.53;5056542;28;20212;-73
2022/01/01 06:53:16;;;;;;;18.83;15.63;;;;;;;7.98;98.28;99195.88;5058390;28;20201;-73
2022/01/01 06:55:43;;;;;;;20.63;16.13;;;;;;;8.12;97.24;99195.13;5073071;28;20526;-72
2022/01/01 06:58:09;;;;;;;20.50;16.30;;;;;;;7.88;98.63;99195.28;5076454;28;20263;-73
2022/01/01 07:00:37;;;;;;;18.57;15.77;;;;;;;7.83;98.85;99195.78;5075668;28;20192;-73
2022/01/01 07:03:04;;;;;;;17.97;15.67;;;;;;;7.84;98.99;99192.16;5076138;28;20201;-72
2022/01/01 07:05:31;;;;;;;20.83;16.87;;;;;;;7.79;99.51;99191.84;5076317;28;20227;-72
2022/01/01 07:07:57;;;;;;;18.60;15.43;;;;;;;7.88;98.13;99190.78;5058594;28;20221;-72
2022/01/01 07:10:23;;;;;;;19.20;14.70;;;;;;;7.99;97.75;99186.94;5056225;28;20211;-72
2022/01/01 07:12:50;;;;;;;17.70;14.93;;;;;;;7.92;98.10;99186.78;5056182;28;20209;-72
2022/01/01 07:15:16;;;;;;;17.00;14.57;;;;;;;7.94;97.05;99183.97;5060975;28;20188;-73
2022/01/01 07:17:43;;;;;;;18.00;14.27;;;;;;;7.95;96.59;99175.03;5075880;28;20498;-73
2022/01/01 07:20:10;;;;;;;17.40;13.77;;;;;;;7.93;97.17;99185.00;5076210;28;20208;-72
2022/01/01 07:22:44;;;;;;;15.83;13.70;;;;;;;7.92;97.80;99184.16;5076201;28;20200;-72
2022/01/01 07:25:12;;;;;;;14.90;13.30;;;;;;;7.95;96.70;99188.28;5071936;28;20496;-72
2022/01/01 07:27:39;;;;;;;16.03;13.57;;;;;;;7.99;97.70;99193.06;5056167;28;20210;-73
2022/01/01 07:30:07;;;;;;;14.57;12.07;;;;;;;8.05;96.86;99194.19;5069409;28;20193;-72
2022/01/01 07:32:33;;;;;;;18.27;13.87;;;;;;;8.05;97.44;99196.84;5083738;28;20218;-73
2022/01/01 07:35:00;;;;;;;14.13;12.40;;;;;;;8.08;96.92;99192.00;5059516;28;20256;-72
2022/01/01 07:37:26;;;;;;;14.30;11.13;;;;;;;8.14;95.77;99193.13;5055970;28;20511;-72
2022/01/01 07:39:52;;;;;;;13.87;10.20;;;;;;;8.23;94.93;99186.81;5056366;28;20224;-72
2022/01/01 07:42:19;;;;;;;10.43;9.07;;;;;;;8.32;93.19;99193.69;5055616;28;20224;-72
2022/01/01 07:44:45;;;;;;;15.23;10.60;;;;;;;8.33;95.09;99196.16;5056120;28;20197;-73
2022/01/01 07:47:11;;;;;;;10.83;9.67;;;;;;;8.37;94.31;99186.03;5055710;28;20303;-72
2022/01/01 07:49:38;;;;;;;12.97;10.10;;;;;;;8.41;94.69;99187.34;5072095;28;20189;-73
2022/01/01 07:52:04;;;;;;;12.57;10.57;;;;;;;8.40;95.28;99191.81;5075757;28;20197;-72
2022/01/01 07:54:30;;;;;;;13.73;10.70;;;;;;;8.43;95.72;99190.63;5078840;28;20200;-72
2022/01/01 07:56:57;;;;;;;11.27;9.70;;;;;;;8.44;93.19;99179.84;5079536;28;20251;-72
2022/01/01 07:59:23;;;;;;;11.47;10.13;;;;;;;8.46;94.23;99180.47;5065506;28;20607;-72
2022/01/01 08:01:49;;;;;;;12.50;10.03;;;;;;;8.43;93.40;99174.72;5059671;28;20205;-72
2022/01/01 08:04:16;;;;;;;12.57;10.53;;;;;;;8.43;92.86;99172.91;5059398;28;20210;-72
2022/01/01 08:06:42;;;;;;;11.40;9.47;;;;;;;8.45;91.43;99170.91;5059304;28;20228;-73
2022/01/01 08:09:09;;;;;;;12.07;10.37;;;;;;;8.46;91.88;99174.38;5068768;28;20243;-73
2022/01/01 08:11:35;;;;;;;12.60;10.37;;;;;;;8.45;91.45;99181.50;5079054;28;20499;-72
2022/01/01 08:14:01;;;;;;;11.53;10.17;;;;;;;8.50;91.89;99180.94;5059205;28;20203;-72
2022/01/01 08:16:28;;;;;;;11.67;10.20;;;;;;;8.53;91.84;99180.59;5059153;28;20218;-73
2022/01/01 08:18:54;;;;;;;11.43;9.70;;;;;;;8.54;92.10;99175.13;5067072;28;20584;-73
2022/01/01 08:21:20;;;;;;;12.90;10.13;;;;;;;8.51;91.43;99169.38;5078788;28;20193;-73
2022/01/01 08:23:46;;;;;;;12.87;10.17;;;;;;;8.48;92.03;99164.41;5078645;28;20510;-73
2022/01/01 08:26:13;;;;;;;12.13;9.93;;;;;;;8.47;92.95;99174.19;5074935;28;20228;-72
2022/01/01 08:28:41;;;;;;;11.37;9.40;;;;;;;8.43;92.55;99166.78;5061088;28;20220;-73
2022/01/01 08:31:08;;;;;;;11.73;9.40;;;;;;;8.47;92.20;99179.47;5063907;28;20196;-73
2022/01/01 08:33:34;;;;;;;10.33;8.57;;;;;;;8.46;91.05;99174.38;5078949;28;20193;-73
2022/01/01 08:36:03;;;;;;;10.37;8.93;;;;;;;8.44;92.15;99181.66;5078897;28;20232;-72
2022/01/01 08:38:30;;;;;;;10.43;8.40;;;;;;;8.43;91.96;99180.03;5078899;28;20195;-72
2022/01/01 08:40:57;;;;;;;10.70;8.80;;;;;;;8.55;89.96;99189.22;5082309;28;20189;-72
2022/01/01 08:43:25;;;;;;;9.83;8.77;;;;;;;8.51;91.23;99188.72;5081585;28;20189;-72
2022/01/01 08:45:51;;;;;;;11.13;9.10;;;;;;;8.47;90.92;99200.69;5069443;28;20236;-73
2022/01/01 08:48:17;;;;;;;11.03;8.50;;;;;;;8.57;89.43;99198.63;5058285;28;20492;-72
2022/01/01 08:50:44;;;;;;;12.03;9.63;;;;;;;8.60;89.43;99205.41;5058546;28;20189;-72
2022/01/01 08:53:10;;;;;;;12.37;8.83;;;;;;;8.58;90.35;99212.69;5058478;28;20204;-73
2022/01/01 08:55:36;;;;;;;11.37;9.27;;;;;;;8.52;90.63;99202.81;5058676;28;20224;-72
2022/01/01 08:58:03;;;;;;;12.53;9.77;;;;;;;8.54;89.33;99209.59;5058145;28;20485;-72
2022/01/01 09:00:29;;;;;;;11.40;8.80;;;;;;;8.49;91.44;99209.28;5058390;28;20205;-72
2022/01/01 09:02:56;;;;;;;10.57;9.30;;;;;;;8.62;89.37;99209.53;5058983;28;20209;-72
2022/01/01 09:05:24;;;;;;;9.63;8.63;;;;;;;8.63;89.24;99210.31;5057870;28;20221;-72
2022/01/01 09:07:50;;;;;;;10.70;9.17;;;;;;;8.62;90.31;99214.81;5058734;28;20213;-72
2022/01/01 09:10:19;;;;;;;9.40;8.30;;;;;;;8.62;89.82;99212.16;5058489;28;20194;-72
2022/01/01 09:12:45;;;;;;;11.10;8.80;;;;;;;8.62;90.37;99209.53;5057821;28;20525;-73
2022/01/01 09:15:11;;;;;;;10.37;8.37;;;;;;;8.79;88.52;99213.66;5057982;28;20209;-72
2022/01/01 09:17:38;;;;;;;10.33;8.00;;;;;;;8.79;89.79;99210.19;5058107;28;20186;-72
2022/01/01 09:20:04;;;;;;;10.00;7.77;;;;;;;8.90;89.90;99215.06;5058209;28;20201;-72
2022/01/01 09:22:31;;;;;;;10.93;7.63;;;;;;;8.96;89.84;99209.84;5063082;28;20201;-73
2022/01/01 09:24:58;;;;;;;10.07;7.43;;;;;;;9.01;89.35;99211.97;5066513;28;20204;-71
2022/01/01 09:27:24;;;;;;;8.97;7.43;;;;;;;9.08;89.06;99218.19;5077352;28;20654;-71
2022/01/01 09:29:51;;;;;;;10.07;7.43;;;;;;;9.16;88.20;99220.78;5063182;28;20200;-71
2022/01/01 09:32:18;;;;;;;8.43;7.57;;;;;;;9.24;87.57;99218.84;5057747;28;20185;-72
2022/01/01 09:34:44;;;;;;;9.57;8.10;;;;;;;9.33;86.25;99222.25;5057452;28;20190;-72
2022/01/01 09:37:11;;;;;;;8.83;7.53;;;;;;;9.38;86.53;99227.84;5068203;28;20670;-71
2022/01/01 09:39:37;;;;;;;10.93;7.80;;;;;;;9.45;86.30;99240.19;5077474;28;20189;-72
2022/01/01 09:42:04;;;;;;;10.43;8.40;;;;;;;9.55;85.24;99226.66;5062100;28;20216;-72
2022/01/01 09:44:36;;;;;;;8.33;7.43;;;;;;;9.65;84.67;99230.66;5056867;28;20210;-72
2022/01/01 09:47:03;;;;;;;7.60;6.80;;;;;;;9.72;83.75;99230.72;5073090;28;20254;-72
2022/01/01 09:49:29;;;;;;;9.20;7.53;;;;;;;9.86;83.87;99240.53;5073824;28;20607;-71
2022/01/01 09:51:56;;;;;;;7.73;6.67;;;;;;;10.08;82.16;99231.63;5075115;28;20189;-72
2022/01/01 09:54:22;;;;;;;7.47;6.73;;;;;;;9.96;82.84;99231.25;5063330;28;20197;-72
2022/01/01 09:56:48;;;;;;;9.27;6.80;;;;;;;9.97;83.25;99232.91;5056725;28;20395;-72
2022/01/01 09:59:15;;;;;;;7.87;6.30;;;;;;;10.00;83.22;99231.72;5060148;28;20184;-71
2022/01/01 10:01:41;;;;;;;8.83;6.33;;;;;;;10.06;82.41;99236.31;5056501;28;20581;-72
2022/01/01 10:04:15;;;;;;;7.93;6.27;;;;;;;10.08;82.12;99224.47;5056618;28;20635;-72
2022/01/01 10:06:43;;;;;;;8.23;6.53;;;;;;;10.09;82.50;99230.63;5075211;28;20224;-71
2022/01/01 10:09:10;;;;;;;7.50;6.40;;;;;;;10.06;83.81;99226.50;5074772;28;20307;-73
2022/01/01 10:11:37;;;;;;;8.80;7.37;;;;;;;10.35;80.33;99218.44;5070231;28;20240;-73
2022/01/01 10:14:07;;;;;;;8.17;7.10;;;;;;;10.30;80.42;99220.00;5056736;28;20208;-73
2022/01/01 10:16:41;;;;;;;9.80;7.87;;;;;;;10.32;80.81;99221.47;5064892;28;20277;-73
2022/01/01 10:19:08;;;;;;;9.47;7.40;;;;;;;10.29;80.28;99210.38;5070590;28;20209;-73
2022/01/01 10:21:39;;;;;;;7.67;6.63;;;;;;;10.41;78.69;99211.53;5057287;28;20193;-72
2022/01/01 10:24:13;;;;;;;9.17;7.83;;;;;;;10.49;78.06;99214.88;5076313;28;20196;-72
2022/01/01 10:29:31;;;;;;;7.27;6.53;;;;;;;10.42;79.11;99205.22;5056205;28;20200;-72
2022/01/01 10:32:02;;;;;;;7.77;6.43;;;;;;;10.40;79.62;99208.06;5058979;28;20208;-73
2022/01/01 10:34:36;;;;;;;9.43;6.70;;;;;;;10.39;78.82;99197.59;5057271;28;20197;-73
2022/01/01 10:37:07;;;;;;;8.43;6.33;;;;;;;10.41;78.83;99193.75;5070551;28;20228;-72
2022/01/01 10:39:33;;;;;;;8.13;6.30;;;;;;;10.53;77.49;99186.06;5067100;28;20220;-72
2022/01/01 10:42:03;;;;;;;10.03;7.00;;;;;;;10.79;75.81;99203.09;5065260;28;20639;-72
2022/01/01 10:44:34;;;;;;;7.50;6.07;;;;;;;10.87;75.20;99199.47;5058730;28;20208;-72
2022/01/01 10:47:06;;;;;;;6.77;5.40;;;;;;;10.94;74.36;99195.84;5060841;28;20221;-73
2022/01/01 10:49:50;;;;;;;6.77;5.50;;;;;;;10.86;75.69;99203.97;5067036;28;20209;-73
2022/01/01 10:52:28;;;;;;;6.07;5.27;;;;;;;10.86;75.34;99198.63;5058786;28;20186;-73
2022/01/01 10:54:56;;;;;;;7.00;5.57;;;;;;;10.89;75.75;99192.94;5067340;28;20185;-73
2022/01/01 10:57:57;;;;;;;7.80;5.97;;;;;;;10.96;74.75;99190.34;5056100;28;20228;-72
2022/01/01 11:00:26;;;;;;;6.33;5.50;;;;;;;11.07;74.33;99186.31;5055970;28;20214;-73
2022/01/01 11:02:58;;;;;;;8.20;5.87;;;;;;;11.24;73.26;99180.47;5057460;28;20189;-72
2022/01/01 11:05:29;;;;;;;6.73;5.80;;;;;;;11.29;73.67;99178.06;5057035;28;20231;-73
2022/01/01 11:07:57;;;;;;;6.53;5.80;;;;;;;11.38;72.76;99174.22;5065926;28;20188;-73
2022/01/01 11:10:25;;;;;;;6.33;5.57;;;;;;;11.33;73.81;99168.66;5066537;28;20191;-73
2022/01/01 11:12:52;;;;;;;7.27;6.33;;;;;;;11.37;73.60;99163.75;5067017;28;20189;-72
2022/01/01 11:15:19;;;;;;;7.67;6.70;;;;;;;11.26;75.62;99167.78;5068866;28;20195;-72
2022/01/01 11:17:47;;;;;;;7.63;6.77;;;;;;;11.32;74.17;99159.03;5058796;28;20535;-72
2022/01/01 11:20:14;;;;;;;8.83;7.60;;;;;;;11.34;74.07;99159.66;5070428;28;20200;-72
2022/01/01 11:22:40;;;;;;;8.70;7.80;;;;;;;11.33;74.42;99160.66;5062298;28;20186;-72
2022/01/01 11:25:07;;;;;;;8.57;6.53;;;;;;;11.27;75.15;99159.59;5055616;28;20212;-74
2022/01/01 11:27:33;;;;;;;9.27;7.50;;;;;;;11.37;74.78;99151.28;5058120;28;20506;-73
2022/01/01 11:30:04;;;;;;;8.17;7.37;;;;;;;11.27;75.14;99146.28;5076460;28;20235;-72